Startpagina
METAR-TAF:

METAR-TAF

Vliegvelden :

Caïro, Egypte

Luchthaven Caïro Internationaal

breedte: 30-08N, lengte: 031-24E, hoogte: 64 m

Actueel weer

Dit bericht is 6 minuten geleden gemaakt, om 12:00 UTC
Wind 6 kt uit het noordwesten
Temperatuur 23°C
Vochtigheid 53%
Druk 1015 hPa
Zicht 10 km of meer
Gebroken wolken op 2500 ft

METAR: HECA 191200Z 31006KT 9999 BKN025 23/13 Q1015 NOSIG

Tijdstip: 14:06 (12:06 UTC)

Verwachting

Dit bericht is 1 uur en het 6 minuten geleden gemaakt, om 11:00 UTC
Verwachting geldig van 19 om 12 UTC tot 20 om 18 UTC
Wind 8 kt uit het noordwesten
Zicht 10 km of meer
Verspreide wolken op 2500 ft
Kans 40% :
Tijdelijke
van 20 om 00 UTC tot 20 om 06 UTC
Wind 3 kt uit variabele richting
Zicht: 3000 m
nevel

TAF: HECA 191100Z 1912/2018 32008KT 9999 SCT025 PROB40 TEMPO 2000/2006 VRB03KT 3000 BR NSC

Waarnemingen en weersverwachtingen van meer dan 4000 vliegvelden (METAR en TAF).

De beschikbare stations zijn de gele en rode punten op de kaart.

Ga met uw muis naar het station om de naam te zien.

Klik dan om waarnemingen en weersverwachtingen te zien.

kaart wijzigen: klik op de groene knoppen met een zwart kruis om in te zoomen, op de groene knop met een streepje om uit te zoomen of op de groene pijlen voor aangrenzende kaarten.


METAR-TAF: